Pietro Novelli — IOTQ — position and weather

sailwx.info

Track history (hours):
 
Tides and Currents Weather Stations Pressure Air Temp Water Temp Dewpoint Dewpoint Depression Visibility Wind Speed Wind Dir Waves Ship Positions

Pietro Novelli

Last reported at 2014-Jul-21 18:29 UTC. Time now 2014-Jul-24 10:42 UTC.
Position N 38°11' E 013°55'.

Length 91 m; draft 3.8 m.

Type: Ship. MMSI: 247000300.

Date/timePositionNaut miles runAvg speedWind from/ knotsBaromVisibWave heightAir tempDewpointWater temp
2014-Jul-21 18:29N 38°11' E 013°55'1314.3
2014-Jul-21 17:33N 38°10' E 013°38'1212.5
2014-Jul-21 16:33N 38°08' E 013°22'  
2014-Jul-18 06:29N 38°08' E 013°22'0 0.0
2014-Jul-18 05:29N 38°08' E 013°22'0 0.0
2014-Jul-18 04:29N 38°08' E 013°22'0 0.0
2014-Jul-18 03:29N 38°08' E 013°22'0 0.0
2014-Jul-18 02:29N 38°08' E 013°22'0 0.0
2014-Jul-18 01:29N 38°08' E 013°22'0 0.0
2014-Jul-18 00:29N 38°08' E 013°22'0 0.0
2014-Jul-17 23:29N 38°08' E 013°22'0 0.0
2014-Jul-17 22:29N 38°08' E 013°22'0 0.0
2014-Jul-17 21:29N 38°08' E 013°22'0 0.0
2014-Jul-17 20:29N 38°08' E 013°22'0 0.0
2014-Jul-17 19:29N 38°08' E 013°22'0 0.0
2014-Jul-17 18:23N 38°08' E 013°22'0 0.0
2014-Jul-17 17:28N 38°08' E 013°22'0 0.0
2014-Jul-17 16:29N 38°08' E 013°22'0 0.0
2014-Jul-17 15:29N 38°08' E 013°22'0 0.0
2014-Jul-17 14:28N 38°08' E 013°22'0 0.0
2014-Jul-17 13:29N 38°08' E 013°22'0 0.0
2014-Jul-17 12:29N 38°08' E 013°22'0 0.0
2014-Jul-17 11:32N 38°08' E 013°22'1 0.5
2014-Jul-17 10:33N 38°08' E 013°22'7 7.1
2014-Jul-17 09:33N 38°15' E 013°24'1312.6
2014-Jul-17 08:33N 38°16' E 013°08'1312.8
2014-Jul-17 07:32N 38°16' E 012°51'96 2.5
2014-Jul-15 17:33N 36°42' E 013°13'7911.3
2014-Jul-15 10:33N 35°29' E 012°36'  
2014-Jul-13 06:15N 38°13' E 015°36'9 7.8
2014-Jul-13 05:08N 38°20' E 015°30'14 1.3
2014-Jul-12 18:33N 38°13' E 015°15'1 0.6
2014-Jul-12 17:34N 38°13' E 015°15'5 0.4
2014-Jul-12 05:33N 38°18' E 015°13'  
Track history (hours):
 
Tides and Currents Weather Stations Pressure Air Temp Water Temp Dewpoint Dewpoint Depression Visibility Wind Speed Wind Dir Waves Ship Positions

Pietro Novelli

Last reported at 2014-Jul-21 18:29 UTC. Time now 2014-Jul-24 10:42 UTC.
Position N 38°11' E 013°55'.

Length 91 m; draft 3.8 m.

Type: Ship. MMSI: 247000300.

Date/timePositionNaut miles runAvg speedWind from/ knotsBaromVisibWave heightAir tempDewpointWater temp
2014-Jul-21 18:29N 38°11' E 013°55'1314.3
2014-Jul-21 17:33N 38°10' E 013°38'1212.5
2014-Jul-21 16:33N 38°08' E 013°22'  
2014-Jul-18 06:29N 38°08' E 013°22'0 0.0
2014-Jul-18 05:29N 38°08' E 013°22'0 0.0
2014-Jul-18 04:29N 38°08' E 013°22'0 0.0
2014-Jul-18 03:29N 38°08' E 013°22'0 0.0
2014-Jul-18 02:29N 38°08' E 013°22'0 0.0
2014-Jul-18 01:29N 38°08' E 013°22'0 0.0
2014-Jul-18 00:29N 38°08' E 013°22'0 0.0
2014-Jul-17 23:29N 38°08' E 013°22'0 0.0
2014-Jul-17 22:29N 38°08' E 013°22'0 0.0
2014-Jul-17 21:29N 38°08' E 013°22'0 0.0
2014-Jul-17 20:29N 38°08' E 013°22'0 0.0
2014-Jul-17 19:29N 38°08' E 013°22'0 0.0
2014-Jul-17 18:23N 38°08' E 013°22'0 0.0
2014-Jul-17 17:28N 38°08' E 013°22'0 0.0
2014-Jul-17 16:29N 38°08' E 013°22'0 0.0
2014-Jul-17 15:29N 38°08' E 013°22'0 0.0
2014-Jul-17 14:28N 38°08' E 013°22'0 0.0
2014-Jul-17 13:29N 38°08' E 013°22'0 0.0
2014-Jul-17 12:29N 38°08' E 013°22'0 0.0
2014-Jul-17 11:32N 38°08' E 013°22'1 0.5
2014-Jul-17 10:33N 38°08' E 013°22'7 7.1
2014-Jul-17 09:33N 38°15' E 013°24'1312.6
2014-Jul-17 08:33N 38°16' E 013°08'1312.8
2014-Jul-17 07:32N 38°16' E 012°51'96 2.5
2014-Jul-15 17:33N 36°42' E 013°13'7911.3
2014-Jul-15 10:33N 35°29' E 012°36'  
2014-Jul-13 06:15N 38°13' E 015°36'9 7.8
2014-Jul-13 05:08N 38°20' E 015°30'14 1.3
2014-Jul-12 18:33N 38°13' E 015°15'1 0.6
2014-Jul-12 17:34N 38°13' E 015°15'5 0.4
2014-Jul-12 05:33N 38°18' E 015°13'  

Dump ship's entire track history